sensor_id;sensor_type;location;lat;lon;timestamp;pressure;altitude;pressure_sealevel;temperature;humidity
43745;BME280;29359;53.048;8.732;2024-02-23T00:00:19;98162.94;;;8.05;70.21
43745;BME280;29359;53.048;8.732;2024-02-23T00:02:21;98184.75;;;7.79;71.75
43745;BME280;29359;53.048;8.732;2024-02-23T00:04:23;98224.06;;;7.49;72.69
43745;BME280;29359;53.048;8.732;2024-02-23T00:06:25;98219.97;;;7.06;72.42
43745;BME280;29359;53.048;8.732;2024-02-23T00:08:29;98249.63;;;6.77;73.78
43745;BME280;29359;53.048;8.732;2024-02-23T00:10:31;98243.75;;;6.60;74.78
43745;BME280;29359;53.048;8.732;2024-02-23T00:12:33;98256.56;;;6.49;74.75
43745;BME280;29359;53.048;8.732;2024-02-23T00:14:35;98253.81;;;6.38;75.93
43745;BME280;29359;53.048;8.732;2024-02-23T00:16:40;98263.91;;;6.28;76.80
43745;BME280;29359;53.048;8.732;2024-02-23T00:18:46;98253.66;;;6.27;76.98
43745;BME280;29359;53.048;8.732;2024-02-23T00:20:48;98273.09;;;6.20;77.15
43745;BME280;29359;53.048;8.732;2024-02-23T00:22:50;98277.56;;;6.18;76.88
43745;BME280;29359;53.048;8.732;2024-02-23T00:24:52;98274.13;;;6.17;76.85
43745;BME280;29359;53.048;8.732;2024-02-23T00:26:54;98274.97;;;6.18;77.01
43745;BME280;29359;53.048;8.732;2024-02-23T00:28:55;98273.09;;;6.20;76.95
43745;BME280;29359;53.048;8.732;2024-02-23T00:30:57;98285.22;;;6.19;77.16
43745;BME280;29359;53.048;8.732;2024-02-23T00:32:59;98287.19;;;6.15;77.24
43745;BME280;29359;53.048;8.732;2024-02-23T00:35:01;98294.00;;;6.17;76.94
43745;BME280;29359;53.048;8.732;2024-02-23T00:37:04;98312.09;;;6.18;76.77
43745;BME280;29359;53.048;8.732;2024-02-23T00:39:07;98322.34;;;6.20;76.67
43745;BME280;29359;53.048;8.732;2024-02-23T00:41:09;98318.09;;;6.19;75.93
43745;BME280;29359;53.048;8.732;2024-02-23T00:43:11;98324.00;;;6.21;75.71
43745;BME280;29359;53.048;8.732;2024-02-23T00:45:13;98318.81;;;6.21;75.81
43745;BME280;29359;53.048;8.732;2024-02-23T00:47:14;98326.59;;;6.21;75.87
43745;BME280;29359;53.048;8.732;2024-02-23T00:49:16;98331.88;;;6.19;75.24
43745;BME280;29359;53.048;8.732;2024-02-23T00:51:18;98334.38;;;6.21;74.71
43745;BME280;29359;53.048;8.732;2024-02-23T00:53:20;98340.50;;;6.20;75.07
43745;BME280;29359;53.048;8.732;2024-02-23T00:55:22;98347.44;;;6.19;74.66
43745;BME280;29359;53.048;8.732;2024-02-23T00:57:24;98352.50;;;6.21;74.32
43745;BME280;29359;53.048;8.732;2024-02-23T00:59:31;98377.72;;;6.19;73.84
43745;BME280;29359;53.048;8.732;2024-02-23T01:01:33;98381.13;;;6.19;73.99
43745;BME280;29359;53.048;8.732;2024-02-23T01:03:35;98396.03;;;6.15;72.72
43745;BME280;29359;53.048;8.732;2024-02-23T01:05:37;98395.47;;;6.10;72.08
43745;BME280;29359;53.048;8.732;2024-02-23T01:07:40;98394.72;;;6.08;72.50
43745;BME280;29359;53.048;8.732;2024-02-23T01:09:41;98408.78;;;6.04;72.23
43745;BME280;29359;53.048;8.732;2024-02-23T01:11:43;98411.59;;;6.01;72.58
43745;BME280;29359;53.048;8.732;2024-02-23T01:13:45;98414.25;;;6.00;73.47
43745;BME280;29359;53.048;8.732;2024-02-23T01:15:47;98415.25;;;5.97;73.67
43745;BME280;29359;53.048;8.732;2024-02-23T01:17:49;98422.47;;;5.92;73.43
43745;BME280;29359;53.048;8.732;2024-02-23T01:19:51;98442.78;;;5.84;74.02
43745;BME280;29359;53.048;8.732;2024-02-23T01:21:53;98437.09;;;5.77;74.32
43745;BME280;29359;53.048;8.732;2024-02-23T01:24:01;98451.59;;;5.65;75.56
43745;BME280;29359;53.048;8.732;2024-02-23T01:26:03;98441.88;;;5.55;75.83
43745;BME280;29359;53.048;8.732;2024-02-23T01:28:05;98467.25;;;5.48;76.20
43745;BME280;29359;53.048;8.732;2024-02-23T01:30:07;98462.59;;;5.39;76.54
43745;BME280;29359;53.048;8.732;2024-02-23T01:32:09;98471.47;;;5.35;77.02
43745;BME280;29359;53.048;8.732;2024-02-23T01:34:11;98487.31;;;5.29;76.95
43745;BME280;29359;53.048;8.732;2024-02-23T01:36:13;98493.31;;;5.29;77.69
43745;BME280;29359;53.048;8.732;2024-02-23T01:38:15;98501.19;;;5.28;77.60
43745;BME280;29359;53.048;8.732;2024-02-23T01:40:20;98509.19;;;5.23;77.31
43745;BME280;29359;53.048;8.732;2024-02-23T01:42:22;98518.63;;;5.24;77.14
43745;BME280;29359;53.048;8.732;2024-02-23T01:44:25;98512.63;;;5.24;77.16
43745;BME280;29359;53.048;8.732;2024-02-23T01:46:27;98525.72;;;5.21;76.99
43745;BME280;29359;53.048;8.732;2024-02-23T01:48:29;98545.59;;;5.20;76.75
43745;BME280;29359;53.048;8.732;2024-02-23T01:50:31;98549.94;;;5.20;77.07
43745;BME280;29359;53.048;8.732;2024-02-23T01:52:34;98551.00;;;5.15;76.08
43745;BME280;29359;53.048;8.732;2024-02-23T01:54:37;98563.13;;;5.15;76.18
43745;BME280;29359;53.048;8.732;2024-02-23T01:56:39;98559.50;;;5.17;76.40
43745;BME280;29359;53.048;8.732;2024-02-23T01:58:41;98582.97;;;5.14;76.36
43745;BME280;29359;53.048;8.732;2024-02-23T02:00:43;98575.53;;;5.08;76.25
43745;BME280;29359;53.048;8.732;2024-02-23T02:02:47;98591.06;;;5.08;76.31
43745;BME280;29359;53.048;8.732;2024-02-23T02:04:49;98592.88;;;5.06;76.42
43745;BME280;29359;53.048;8.732;2024-02-23T02:06:51;98623.19;;;5.04;76.88
43745;BME280;29359;53.048;8.732;2024-02-23T02:08:53;98622.66;;;4.98;76.60
43745;BME280;29359;53.048;8.732;2024-02-23T02:10:55;98615.28;;;4.90;76.84
43745;BME280;29359;53.048;8.732;2024-02-23T02:13:04;98624.22;;;4.84;77.32
43745;BME280;29359;53.048;8.732;2024-02-23T02:15:07;98630.69;;;4.76;77.62
43745;BME280;29359;53.048;8.732;2024-02-23T02:17:09;98646.59;;;4.68;77.11
43745;BME280;29359;53.048;8.732;2024-02-23T02:19:11;98660.50;;;4.65;77.45
43745;BME280;29359;53.048;8.732;2024-02-23T02:21:13;98658.88;;;4.63;77.58
43745;BME280;29359;53.048;8.732;2024-02-23T02:23:15;98658.50;;;4.53;77.75
43745;BME280;29359;53.048;8.732;2024-02-23T02:25:18;98675.59;;;4.56;78.18
43745;BME280;29359;53.048;8.732;2024-02-23T02:27:19;98671.59;;;4.50;78.50
43745;BME280;29359;53.048;8.732;2024-02-23T02:29:21;98682.63;;;4.54;78.96
43745;BME280;29359;53.048;8.732;2024-02-23T02:31:23;98681.84;;;4.52;79.31
43745;BME280;29359;53.048;8.732;2024-02-23T02:33:25;98686.34;;;4.48;79.64
43745;BME280;29359;53.048;8.732;2024-02-23T02:35:27;98690.66;;;4.48;79.69
43745;BME280;29359;53.048;8.732;2024-02-23T02:37:28;98703.75;;;4.45;79.55
43745;BME280;29359;53.048;8.732;2024-02-23T02:39:30;98679.63;;;4.44;79.48
43745;BME280;29359;53.048;8.732;2024-02-23T02:41:32;98683.13;;;4.43;78.94
43745;BME280;29359;53.048;8.732;2024-02-23T02:43:34;98694.28;;;4.43;78.99
43745;BME280;29359;53.048;8.732;2024-02-23T02:45:36;98703.81;;;4.43;78.99
43745;BME280;29359;53.048;8.732;2024-02-23T02:47:37;98703.81;;;4.43;78.67
43745;BME280;29359;53.048;8.732;2024-02-23T02:49:40;98703.66;;;4.46;78.72
43745;BME280;29359;53.048;8.732;2024-02-23T02:51:41;98707.22;;;4.43;78.79
43745;BME280;29359;53.048;8.732;2024-02-23T02:53:43;98696.97;;;4.42;78.77
43745;BME280;29359;53.048;8.732;2024-02-23T02:55:45;98713.22;;;4.44;77.98
43745;BME280;29359;53.048;8.732;2024-02-23T02:57:47;98703.88;;;4.41;77.75
43745;BME280;29359;53.048;8.732;2024-02-23T02:59:48;98704.13;;;4.37;78.07
43745;BME280;29359;53.048;8.732;2024-02-23T03:01:51;98718.00;;;4.34;78.29
43745;BME280;29359;53.048;8.732;2024-02-23T03:03:53;98710.25;;;4.34;77.41
43745;BME280;29359;53.048;8.732;2024-02-23T03:05:55;98715.16;;;4.40;75.53
43745;BME280;29359;53.048;8.732;2024-02-23T03:07:57;98722.38;;;4.51;73.26
43745;BME280;29359;53.048;8.732;2024-02-23T03:09:59;98717.84;;;4.56;72.91
43745;BME280;29359;53.048;8.732;2024-02-23T03:12:00;98733.97;;;4.61;72.26
43745;BME280;29359;53.048;8.732;2024-02-23T03:14:02;98742.31;;;4.66;71.13
43745;BME280;29359;53.048;8.732;2024-02-23T03:16:04;98754.34;;;4.67;71.09
43745;BME280;29359;53.048;8.732;2024-02-23T03:18:06;98757.91;;;4.65;71.30
43745;BME280;29359;53.048;8.732;2024-02-23T03:20:11;98762.31;;;4.63;71.75
43745;BME280;29359;53.048;8.732;2024-02-23T03:22:13;98766.78;;;4.59;72.03
43745;BME280;29359;53.048;8.732;2024-02-23T03:24:15;98772.97;;;4.57;72.71
43745;BME280;29359;53.048;8.732;2024-02-23T03:26:16;98772.13;;;4.56;73.45
43745;BME280;29359;53.048;8.732;2024-02-23T03:28:18;98784.28;;;4.54;74.53
43745;BME280;29359;53.048;8.732;2024-02-23T03:30:20;98780.78;;;4.55;74.58
43745;BME280;29359;53.048;8.732;2024-02-23T03:32:22;98796.38;;;4.54;75.00
43745;BME280;29359;53.048;8.732;2024-02-23T03:34:24;98790.41;;;4.52;75.35
43745;BME280;29359;53.048;8.732;2024-02-23T03:36:26;98807.63;;;4.53;75.97
43745;BME280;29359;53.048;8.732;2024-02-23T03:38:28;98802.47;;;4.53;76.48
43745;BME280;29359;53.048;8.732;2024-02-23T03:40:33;98801.75;;;4.49;76.95
43745;BME280;29359;53.048;8.732;2024-02-23T03:42:35;98802.59;;;4.50;77.63
43745;BME280;29359;53.048;8.732;2024-02-23T03:44:38;98800.28;;;4.43;78.11
43745;BME280;29359;53.048;8.732;2024-02-23T03:46:39;98808.88;;;4.44;78.30
43745;BME280;29359;53.048;8.732;2024-02-23T03:48:41;98811.53;;;4.42;78.21
43745;BME280;29359;53.048;8.732;2024-02-23T03:50:43;98812.50;;;4.40;78.39
43745;BME280;29359;53.048;8.732;2024-02-23T03:52:45;98816.78;;;4.41;78.16
43745;BME280;29359;53.048;8.732;2024-02-23T03:54:46;98828.78;;;4.42;78.64
43745;BME280;29359;53.048;8.732;2024-02-23T03:56:48;98818.38;;;4.43;77.82
43745;BME280;29359;53.048;8.732;2024-02-23T03:58:50;98831.13;;;4.48;77.68
43745;BME280;29359;53.048;8.732;2024-02-23T04:00:52;98834.31;;;4.53;77.42
43745;BME280;29359;53.048;8.732;2024-02-23T04:02:53;98828.09;;;4.57;77.07
43745;BME280;29359;53.048;8.732;2024-02-23T04:04:58;98836.78;;;4.56;76.83
43745;BME280;29359;53.048;8.732;2024-02-23T04:07:00;98835.00;;;4.57;76.82
43745;BME280;29359;53.048;8.732;2024-02-23T04:09:02;98840.88;;;4.60;76.39
43745;BME280;29359;53.048;8.732;2024-02-23T04:11:07;98842.47;;;4.63;76.27
43745;BME280;29359;53.048;8.732;2024-02-23T04:13:08;98856.19;;;4.65;76.20
43745;BME280;29359;53.048;8.732;2024-02-23T04:15:12;98852.59;;;4.67;76.19
43745;BME280;29359;53.048;8.732;2024-02-23T04:17:14;98845.63;;;4.70;75.53
43745;BME280;29359;53.048;8.732;2024-02-23T04:19:16;98857.59;;;4.72;75.26
43745;BME280;29359;53.048;8.732;2024-02-23T04:21:17;98860.88;;;4.76;74.32
43745;BME280;29359;53.048;8.732;2024-02-23T04:23:19;98873.03;;;4.74;74.70
43745;BME280;29359;53.048;8.732;2024-02-23T04:25:21;98873.84;;;4.74;74.53
43745;BME280;29359;53.048;8.732;2024-02-23T04:27:23;98879.09;;;4.73;73.98
43745;BME280;29359;53.048;8.732;2024-02-23T04:29:24;98874.19;;;4.66;74.19
43745;BME280;29359;53.048;8.732;2024-02-23T04:31:26;98892.44;;;4.63;73.50
43745;BME280;29359;53.048;8.732;2024-02-23T04:33:28;98889.94;;;4.62;73.85
43745;BME280;29359;53.048;8.732;2024-02-23T04:35:30;98887.44;;;4.60;73.90
43745;BME280;29359;53.048;8.732;2024-02-23T04:37:32;98899.44;;;4.61;73.55
43745;BME280;29359;53.048;8.732;2024-02-23T04:39:36;98897.13;;;4.55;73.44
43745;BME280;29359;53.048;8.732;2024-02-23T04:41:39;98900.50;;;4.57;72.82
43745;BME280;29359;53.048;8.732;2024-02-23T04:43:41;98890.38;;;4.53;72.68
43745;BME280;29359;53.048;8.732;2024-02-23T04:45:43;98900.69;;;4.53;72.46
43745;BME280;29359;53.048;8.732;2024-02-23T04:47:44;98909.50;;;4.49;73.09
43745;BME280;29359;53.048;8.732;2024-02-23T04:49:48;98915.63;;;4.46;72.97
43745;BME280;29359;53.048;8.732;2024-02-23T04:51:51;98923.53;;;4.43;72.82
43745;BME280;29359;53.048;8.732;2024-02-23T04:53:53;98910.81;;;4.38;73.26
43745;BME280;29359;53.048;8.732;2024-02-23T04:55:54;98916.94;;;4.36;73.41
43745;BME280;29359;53.048;8.732;2024-02-23T04:57:56;98927.34;;;4.34;73.33
43745;BME280;29359;53.048;8.732;2024-02-23T04:59:58;98912.75;;;4.33;72.81
43745;BME280;29359;53.048;8.732;2024-02-23T05:02:00;98907.81;;;4.29;72.79
43745;BME280;29359;53.048;8.732;2024-02-23T05:04:02;98919.94;;;4.27;73.17
43745;BME280;29359;53.048;8.732;2024-02-23T05:06:04;98913.16;;;4.24;72.98
43745;BME280;29359;53.048;8.732;2024-02-23T05:08:06;98915.06;;;4.21;73.04
43745;BME280;29359;53.048;8.732;2024-02-23T05:10:09;98925.38;;;4.21;72.84
43745;BME280;29359;53.048;8.732;2024-02-23T05:12:11;98922.03;;;4.18;72.80
43745;BME280;29359;53.048;8.732;2024-02-23T05:14:13;98934.09;;;4.18;72.77
43745;BME280;29359;53.048;8.732;2024-02-23T05:16:15;98934.31;;;4.13;73.17
43745;BME280;29359;53.048;8.732;2024-02-23T05:18:17;98945.41;;;4.15;73.21
43745;BME280;29359;53.048;8.732;2024-02-23T05:20:19;98939.47;;;4.13;73.20
43745;BME280;29359;53.048;8.732;2024-02-23T05:22:20;98948.97;;;4.13;73.71
43745;BME280;29359;53.048;8.732;2024-02-23T05:24:22;98947.28;;;4.12;73.67
43745;BME280;29359;53.048;8.732;2024-02-23T05:26:24;98962.72;;;4.13;74.02
43745;BME280;29359;53.048;8.732;2024-02-23T05:28:26;98956.66;;;4.14;73.79
43745;BME280;29359;53.048;8.732;2024-02-23T05:30:27;98962.72;;;4.13;74.11
43745;BME280;29359;53.048;8.732;2024-02-23T05:32:33;98957.56;;;4.13;74.31
43745;BME280;29359;53.048;8.732;2024-02-23T05:34:35;98961.94;;;4.11;74.57
43745;BME280;29359;53.048;8.732;2024-02-23T05:36:37;98962.72;;;4.13;74.48
43745;BME280;29359;53.048;8.732;2024-02-23T05:38:39;98966.16;;;4.14;74.67
43745;BME280;29359;53.048;8.732;2024-02-23T05:40:41;98964.53;;;4.11;75.20
43745;BME280;29359;53.048;8.732;2024-02-23T05:42:42;98967.19;;;4.10;75.27
43745;BME280;29359;53.048;8.732;2024-02-23T05:44:45;98974.09;;;4.09;75.31
43745;BME280;29359;53.048;8.732;2024-02-23T05:46:47;98966.28;;;4.11;75.37
43745;BME280;29359;53.048;8.732;2024-02-23T05:48:49;98973.09;;;4.12;75.25
43745;BME280;29359;53.048;8.732;2024-02-23T05:50:51;98970.53;;;4.12;75.65
43745;BME280;29359;53.048;8.732;2024-02-23T05:52:53;98977.31;;;4.14;75.82
43745;BME280;29359;53.048;8.732;2024-02-23T05:54:55;98985.91;;;4.15;75.68
43745;BME280;29359;53.048;8.732;2024-02-23T05:56:57;98984.16;;;4.15;76.09
43745;BME280;29359;53.048;8.732;2024-02-23T05:58:59;98986.53;;;4.20;75.96
43745;BME280;29359;53.048;8.732;2024-02-23T06:01:01;98986.50;;;4.22;75.93
43745;BME280;29359;53.048;8.732;2024-02-23T06:03:03;98999.22;;;4.26;75.74
43745;BME280;29359;53.048;8.732;2024-02-23T06:05:05;98989.47;;;4.33;75.84
43745;BME280;29359;53.048;8.732;2024-02-23T06:07:09;98991.13;;;4.34;75.96
43745;BME280;29359;53.048;8.732;2024-02-23T06:09:11;99003.94;;;4.37;75.77
43745;BME280;29359;53.048;8.732;2024-02-23T06:11:13;99009.94;;;4.37;75.68
43745;BME280;29359;53.048;8.732;2024-02-23T06:13:15;99013.38;;;4.38;76.04
43745;BME280;29359;53.048;8.732;2024-02-23T06:15:17;99003.78;;;4.40;75.89
43745;BME280;29359;53.048;8.732;2024-02-23T06:17:18;99005.50;;;4.41;75.44
43745;BME280;29359;53.048;8.732;2024-02-23T06:19:20;99005.50;;;4.41;75.57
43745;BME280;29359;53.048;8.732;2024-02-23T06:21:22;99004.66;;;4.40;75.39
43745;BME280;29359;53.048;8.732;2024-02-23T06:23:24;99019.25;;;4.41;75.54
43745;BME280;29359;53.048;8.732;2024-02-23T06:25:26;99008.84;;;4.43;75.14
43745;BME280;29359;53.048;8.732;2024-02-23T06:27:27;99029.19;;;4.51;74.45
43745;BME280;29359;53.048;8.732;2024-02-23T06:29:29;99030.81;;;4.53;74.50
43745;BME280;29359;53.048;8.732;2024-02-23T06:31:31;99034.03;;;4.58;74.00
43745;BME280;29359;53.048;8.732;2024-02-23T06:33:35;99029.56;;;4.62;73.47
43745;BME280;29359;53.048;8.732;2024-02-23T06:35:37;99051.88;;;4.64;73.41
43745;BME280;29359;53.048;8.732;2024-02-23T06:37:39;99042.16;;;4.70;72.95
43745;BME280;29359;53.048;8.732;2024-02-23T06:39:41;99056.66;;;4.74;72.23
43745;BME280;29359;53.048;8.732;2024-02-23T06:41:43;99057.22;;;4.80;71.63
43745;BME280;29359;53.048;8.732;2024-02-23T06:43:46;99057.97;;;4.82;71.33
43745;BME280;29359;53.048;8.732;2024-02-23T06:45:48;99066.44;;;4.86;71.08
43745;BME280;29359;53.048;8.732;2024-02-23T06:47:49;99080.19;;;4.88;71.09
43745;BME280;29359;53.048;8.732;2024-02-23T06:49:51;99074.09;;;4.89;71.28
43745;BME280;29359;53.048;8.732;2024-02-23T06:51:53;99071.59;;;4.87;71.20
43745;BME280;29359;53.048;8.732;2024-02-23T06:53:55;99084.34;;;4.90;70.65
43745;BME280;29359;53.048;8.732;2024-02-23T06:55:58;99077.63;;;4.86;70.78
43745;BME280;29359;53.048;8.732;2024-02-23T06:58:01;99086.41;;;4.84;71.06
43745;BME280;29359;53.048;8.732;2024-02-23T07:00:03;99081.34;;;4.81;71.30
43745;BME280;29359;53.048;8.732;2024-02-23T07:02:05;99071.91;;;4.80;71.18
43745;BME280;29359;53.048;8.732;2024-02-23T07:04:07;99078.88;;;4.78;71.17
43745;BME280;29359;53.048;8.732;2024-02-23T07:06:09;99077.97;;;4.79;71.17
43745;BME280;29359;53.048;8.732;2024-02-23T07:08:12;99088.31;;;4.79;71.02
43745;BME280;29359;53.048;8.732;2024-02-23T07:10:14;99077.97;;;4.79;71.32
43745;BME280;29359;53.048;8.732;2024-02-23T07:12:15;99088.31;;;4.79;71.34
43745;BME280;29359;53.048;8.732;2024-02-23T07:14:17;99087.47;;;4.78;71.48
43745;BME280;29359;53.048;8.732;2024-02-23T07:16:19;99089.16;;;4.79;71.61
43745;BME280;29359;53.048;8.732;2024-02-23T07:18:22;99095.94;;;4.82;71.32
43745;BME280;29359;53.048;8.732;2024-02-23T07:20:24;99101.03;;;4.83;71.31
43745;BME280;29359;53.048;8.732;2024-02-23T07:22:25;99105.38;;;4.83;71.54
43745;BME280;29359;53.048;8.732;2024-02-23T07:24:27;99104.53;;;4.82;71.80
43745;BME280;29359;53.048;8.732;2024-02-23T07:26:29;99107.84;;;4.86;71.22
43745;BME280;29359;53.048;8.732;2024-02-23T07:28:31;99107.78;;;4.87;71.22
43745;BME280;29359;53.048;8.732;2024-02-23T07:30:34;99101.63;;;4.90;71.30
43745;BME280;29359;53.048;8.732;2024-02-23T07:32:38;99103.25;;;4.92;71.29
43745;BME280;29359;53.048;8.732;2024-02-23T07:34:41;99108.34;;;4.94;71.35
43745;BME280;29359;53.048;8.732;2024-02-23T07:36:43;99109.13;;;4.96;70.82
43745;BME280;29359;53.048;8.732;2024-02-23T07:38:44;99116.78;;;4.99;70.93
43745;BME280;29359;53.048;8.732;2024-02-23T07:40:46;99118.50;;;4.99;71.22
43745;BME280;29359;53.048;8.732;2024-02-23T07:42:48;99119.28;;;5.01;71.20
43745;BME280;29359;53.048;8.732;2024-02-23T07:44:50;99121.88;;;5.01;71.12
43745;BME280;29359;53.048;8.732;2024-02-23T07:46:51;99125.16;;;5.04;71.09
43745;BME280;29359;53.048;8.732;2024-02-23T07:48:55;99125.03;;;5.07;71.15
43745;BME280;29359;53.048;8.732;2024-02-23T07:50:57;99118.03;;;5.09;70.99
43745;BME280;29359;53.048;8.732;2024-02-23T07:52:59;99124.75;;;5.13;70.71
43745;BME280;29359;53.048;8.732;2024-02-23T07:55:01;99126.44;;;5.14;70.10
43745;BME280;29359;53.048;8.732;2024-02-23T07:57:06;99126.31;;;5.17;70.66
43745;BME280;29359;53.048;8.732;2024-02-23T07:59:09;99133.88;;;5.22;69.94
43745;BME280;29359;53.048;8.732;2024-02-23T08:01:11;99131.16;;;5.25;70.05
43745;BME280;29359;53.048;8.732;2024-02-23T08:03:13;99134.44;;;5.29;69.96
43745;BME280;29359;53.048;8.732;2024-02-23T08:05:14;99137.81;;;5.31;69.81
43745;BME280;29359;53.048;8.732;2024-02-23T08:07:17;99148.81;;;5.36;69.64
43745;BME280;29359;53.048;8.732;2024-02-23T08:09:18;99146.97;;;5.38;69.76
43745;BME280;29359;53.048;8.732;2024-02-23T08:11:20;99143.28;;;5.44;69.58
43745;BME280;29359;53.048;8.732;2024-02-23T08:13:22;99151.81;;;5.46;69.25
43745;BME280;29359;53.048;8.732;2024-02-23T08:15:24;99152.50;;;5.49;69.25
43745;BME280;29359;53.048;8.732;2024-02-23T08:17:25;99159.31;;;5.52;69.25
43745;BME280;29359;53.048;8.732;2024-02-23T08:19:27;99162.66;;;5.54;68.70
43745;BME280;29359;53.048;8.732;2024-02-23T08:21:29;99163.53;;;5.54;68.67
43745;BME280;29359;53.048;8.732;2024-02-23T08:23:31;99168.50;;;5.59;68.60
43745;BME280;29359;53.048;8.732;2024-02-23T08:25:33;99163.09;;;5.63;68.29
43745;BME280;29359;53.048;8.732;2024-02-23T08:27:35;99165.41;;;5.70;68.45
43745;BME280;29359;53.048;8.732;2024-02-23T08:29:39;99164.34;;;5.74;68.62
43745;BME280;29359;53.048;8.732;2024-02-23T08:31:41;99167.59;;;5.79;68.05
43745;BME280;29359;53.048;8.732;2024-02-23T08:33:43;99175.22;;;5.82;68.14
43745;BME280;29359;53.048;8.732;2024-02-23T08:35:44;99169.13;;;5.83;68.01
43745;BME280;29359;53.048;8.732;2024-02-23T08:37:46;99180.25;;;5.85;67.75
43745;BME280;29359;53.048;8.732;2024-02-23T08:39:48;99185.16;;;5.91;67.96
43745;BME280;29359;53.048;8.732;2024-02-23T08:41:50;99186.72;;;5.95;67.78
43745;BME280;29359;53.048;8.732;2024-02-23T08:43:53;99188.28;;;5.99;68.18
43745;BME280;29359;53.048;8.732;2024-02-23T08:45:56;99181.06;;;6.06;67.42
43745;BME280;29359;53.048;8.732;2024-02-23T08:48:04;99182.50;;;6.11;67.65
43745;BME280;29359;53.048;8.732;2024-02-23T08:50:06;99177.94;;;6.17;67.18
43745;BME280;29359;53.048;8.732;2024-02-23T08:52:08;99181.00;;;6.25;67.41
43745;BME280;29359;53.048;8.732;2024-02-23T08:54:10;99172.72;;;6.35;66.98
43745;BME280;29359;53.048;8.732;2024-02-23T08:56:12;99178.63;;;6.39;66.47
43745;BME280;29359;53.048;8.732;2024-02-23T08:58:14;99172.38;;;6.43;66.66
43745;BME280;29359;53.048;8.732;2024-02-23T09:00:16;99182.50;;;6.48;66.73
43745;BME280;29359;53.048;8.732;2024-02-23T09:02:19;99175.56;;;6.48;66.94
43745;BME280;29359;53.048;8.732;2024-02-23T09:04:20;99192.66;;;6.52;66.75
43745;BME280;29359;53.048;8.732;2024-02-23T09:06:22;99198.53;;;6.56;66.48
43745;BME280;29359;53.048;8.732;2024-02-23T09:08:24;99203.66;;;6.57;65.97
43745;BME280;29359;53.048;8.732;2024-02-23T09:10:26;99196.72;;;6.58;66.16
43745;BME280;29359;53.048;8.732;2024-02-23T09:12:28;99207.94;;;6.58;65.64
43745;BME280;29359;53.048;8.732;2024-02-23T09:14:29;99196.03;;;6.54;65.98
43745;BME280;29359;53.048;8.732;2024-02-23T09:16:31;99192.66;;;6.52;65.78
43745;BME280;29359;53.048;8.732;2024-02-23T09:18:33;99197.00;;;6.52;65.80
43745;BME280;29359;53.048;8.732;2024-02-23T09:20:35;99202.19;;;6.52;65.46
43745;BME280;29359;53.048;8.732;2024-02-23T09:22:36;99207.63;;;6.47;65.25
43745;BME280;29359;53.048;8.732;2024-02-23T09:24:41;99221.41;;;6.48;65.56
43745;BME280;29359;53.048;8.732;2024-02-23T09:26:46;99219.81;;;6.45;65.14
43745;BME280;29359;53.048;8.732;2024-02-23T09:28:49;99225.06;;;6.44;65.47
43745;BME280;29359;53.048;8.732;2024-02-23T09:30:50;99228.72;;;6.39;65.61
43745;BME280;29359;53.048;8.732;2024-02-23T09:32:52;99228.72;;;6.39;65.21
43745;BME280;29359;53.048;8.732;2024-02-23T09:34:54;99221.03;;;6.38;65.39
43745;BME280;29359;53.048;8.732;2024-02-23T09:36:56;99229.66;;;6.38;65.45
43745;BME280;29359;53.048;8.732;2024-02-23T09:38:57;99235.81;;;6.36;65.96
43745;BME280;29359;53.048;8.732;2024-02-23T09:40:59;99230.69;;;6.34;65.04
43745;BME280;29359;53.048;8.732;2024-02-23T09:43:03;99235.97;;;6.33;64.55
43745;BME280;29359;53.048;8.732;2024-02-23T09:45:10;99248.94;;;6.33;64.69
43745;BME280;29359;53.048;8.732;2024-02-23T09:47:13;99248.84;;;6.34;65.72
43745;BME280;29359;53.048;8.732;2024-02-23T09:49:16;99252.97;;;6.38;65.12
43745;BME280;29359;53.048;8.732;2024-02-23T09:51:18;99243.91;;;6.47;63.75
43745;BME280;29359;53.048;8.732;2024-02-23T09:53:20;99239.53;;;6.49;63.33
43745;BME280;29359;53.048;8.732;2024-02-23T09:55:23;99244.72;;;6.49;62.93
43745;BME280;29359;53.048;8.732;2024-02-23T09:57:25;99239.44;;;6.51;63.27
43745;BME280;29359;53.048;8.732;2024-02-23T09:59:27;99240.00;;;6.57;62.89
43745;BME280;29359;53.048;8.732;2024-02-23T10:01:33;99246.84;;;6.58;63.26
43745;BME280;29359;53.048;8.732;2024-02-23T10:03:35;99245.56;;;6.67;63.00
43745;BME280;29359;53.048;8.732;2024-02-23T10:05:36;99247.94;;;6.72;63.03
43745;BME280;29359;53.048;8.732;2024-02-23T10:07:43;99252.97;;;6.75;62.20
43745;BME280;29359;53.048;8.732;2024-02-23T10:09:46;99258.16;;;6.75;62.51
43745;BME280;29359;53.048;8.732;2024-02-23T10:11:54;99261.47;;;6.78;62.23
43745;BME280;29359;53.048;8.732;2024-02-23T10:13:56;99259.56;;;6.82;62.27
43745;BME280;29359;53.048;8.732;2024-02-23T10:15:58;99270.56;;;6.87;63.05
43745;BME280;29359;53.048;8.732;2024-02-23T10:18:16;99277.28;;;6.91;62.67
43745;BME280;29359;53.048;8.732;2024-02-23T10:20:18;99280.66;;;6.93;62.57
43745;BME280;29359;53.048;8.732;2024-02-23T10:22:19;99282.41;;;6.93;62.62
43745;BME280;29359;53.048;8.732;2024-02-23T10:24:23;99288.50;;;6.92;62.49
43745;BME280;29359;53.048;8.732;2024-02-23T10:26:26;99290.19;;;6.93;63.38
43745;BME280;29359;53.048;8.732;2024-02-23T10:28:28;99288.44;;;6.93;62.02
43745;BME280;29359;53.048;8.732;2024-02-23T10:30:30;99284.91;;;6.94;62.09
43745;BME280;29359;53.048;8.732;2024-02-23T10:32:32;99282.19;;;6.97;61.86
43745;BME280;29359;53.048;8.732;2024-02-23T10:34:37;99282.94;;;6.99;61.07
43745;BME280;29359;53.048;8.732;2024-02-23T10:36:45;99285.63;;;6.98;61.46
43745;BME280;29359;53.048;8.732;2024-02-23T10:38:51;99282.03;;;7.00;61.47
43745;BME280;29359;53.048;8.732;2024-02-23T10:40:55;99298.22;;;7.05;61.37
43745;BME280;29359;53.048;8.732;2024-02-23T10:43:02;99297.94;;;7.11;61.58
43745;BME280;29359;53.048;8.732;2024-02-23T10:45:06;99293.34;;;7.17;61.77
43745;BME280;29359;53.048;8.732;2024-02-23T10:47:07;99302.66;;;7.21;60.68
43745;BME280;29359;53.048;8.732;2024-02-23T10:49:12;99288.06;;;7.18;60.54
43745;BME280;29359;53.048;8.732;2024-02-23T10:51:16;99295.03;;;7.18;60.50
43745;BME280;29359;53.048;8.732;2024-02-23T10:53:22;99306.19;;;7.20;60.89
43745;BME280;29359;53.048;8.732;2024-02-23T10:55:25;99303.66;;;7.18;60.67